sensor_id;sensor_type;location;lat;lon;timestamp;pressure;altitude;pressure_sealevel;temperature;humidity
38197;BME280;26543;51.976;4.616;2023-04-29T00:00:44;52865.69;;;-140.72;100.00
38197;BME280;26543;51.976;4.616;2023-04-29T00:03:09;52845.41;;;-140.72;100.00
38197;BME280;26543;51.976;4.616;2023-04-29T00:05:35;52812.94;;;-140.72;100.00
38197;BME280;26543;51.976;4.616;2023-04-29T00:08:00;52873.81;;;-140.72;100.00
38197;BME280;26543;51.976;4.616;2023-04-29T00:10:26;52847.44;;;-140.72;100.00
38197;BME280;26543;51.976;4.616;2023-04-29T00:12:51;52814.97;;;-140.72;100.00
38197;BME280;26543;51.976;4.616;2023-04-29T00:15:16;52849.47;;;-140.72;100.00
38197;BME280;26543;51.976;4.616;2023-04-29T00:17:41;52849.47;;;-140.72;100.00
38197;BME280;26543;51.976;4.616;2023-04-29T00:20:07;52825.13;;;-140.72;100.00
38197;BME280;26543;51.976;4.616;2023-04-29T00:22:32;52825.13;;;-140.72;100.00
38197;BME280;26543;51.976;4.616;2023-04-29T00:24:58;52829.19;;;-140.72;100.00
38197;BME280;26543;51.976;4.616;2023-04-29T00:27:24;52920.50;;;-140.72;100.00
38197;BME280;26543;51.976;4.616;2023-04-29T00:29:49;52863.66;;;-140.72;100.00
38197;BME280;26543;51.976;4.616;2023-04-29T00:32:14;52869.75;;;-140.72;100.00
38197;BME280;26543;51.976;4.616;2023-04-29T00:34:40;52857.59;;;-140.72;100.00
38197;BME280;26543;51.976;4.616;2023-04-29T00:37:07;52861.66;;;-140.72;100.00
38197;BME280;26543;51.976;4.616;2023-04-29T00:39:32;52849.47;;;-140.72;100.00
38197;BME280;26543;51.976;4.616;2023-04-29T00:42:10;52857.59;;;-140.72;100.00
38197;BME280;26543;51.976;4.616;2023-04-29T00:44:35;52849.47;;;-140.72;100.00
38197;BME280;26543;51.976;4.616;2023-04-29T00:47:01;52865.69;;;-140.72;100.00
38197;BME280;26543;51.976;4.616;2023-04-29T00:49:26;52819.03;;;-140.72;100.00
38197;BME280;26543;51.976;4.616;2023-04-29T00:51:52;52851.50;;;-140.72;100.00
38197;BME280;26543;51.976;4.616;2023-04-29T00:54:18;52855.56;;;-140.72;100.00
38197;BME280;26543;51.976;4.616;2023-04-29T00:56:44;52849.47;;;-140.72;100.00
38197;BME280;26543;51.976;4.616;2023-04-29T00:59:09;52812.94;;;-140.72;100.00
38197;BME280;26543;51.976;4.616;2023-04-29T01:01:38;52857.59;;;-140.72;100.00
38197;BME280;26543;51.976;4.616;2023-04-29T01:04:03;52829.19;;;-140.72;100.00
38197;BME280;26543;51.976;4.616;2023-04-29T01:09:25;52869.75;;;-140.72;100.00
38197;BME280;26543;51.976;4.616;2023-04-29T01:14:18;52888.03;;;-140.72;100.00
38197;BME280;26543;51.976;4.616;2023-04-29T01:16:43;52849.47;;;-140.72;100.00
38197;BME280;26543;51.976;4.616;2023-04-29T01:19:26;52837.28;;;-140.72;100.00
38197;BME280;26543;51.976;4.616;2023-04-29T01:21:57;52883.97;;;-140.72;100.00
38197;BME280;26543;51.976;4.616;2023-04-29T01:24:22;52861.66;;;-140.72;100.00
38197;BME280;26543;51.976;4.616;2023-04-29T01:26:52;52847.44;;;-140.72;100.00
38197;BME280;26543;51.976;4.616;2023-04-29T01:29:29;52857.59;;;-140.72;100.00
38197;BME280;26543;51.976;4.616;2023-04-29T01:34:33;52857.59;;;-140.72;100.00
38197;BME280;26543;51.976;4.616;2023-04-29T01:37:09;52837.28;;;-140.72;100.00
38197;BME280;26543;51.976;4.616;2023-04-29T01:39:45;52865.69;;;-140.72;100.00
38197;BME280;26543;51.976;4.616;2023-04-29T01:42:21;52863.66;;;-140.72;100.00
38197;BME280;26543;51.976;4.616;2023-04-29T01:44:48;52812.94;;;-140.72;100.00
38197;BME280;26543;51.976;4.616;2023-04-29T01:47:15;52859.63;;;-140.72;100.00
38197;BME280;26543;51.976;4.616;2023-04-29T01:49:41;52853.53;;;-140.72;100.00
38197;BME280;26543;51.976;4.616;2023-04-29T01:52:06;52877.88;;;-140.72;100.00
38197;BME280;26543;51.976;4.616;2023-04-29T01:54:31;52881.94;;;-140.72;100.00
38197;BME280;26543;51.976;4.616;2023-04-29T01:57:00;52837.28;;;-140.72;100.00
38197;BME280;26543;51.976;4.616;2023-04-29T01:59:25;52821.06;;;-140.72;100.00
38197;BME280;26543;51.976;4.616;2023-04-29T02:01:51;52879.91;;;-140.72;100.00
38197;BME280;26543;51.976;4.616;2023-04-29T02:04:16;52855.56;;;-140.72;100.00
38197;BME280;26543;51.976;4.616;2023-04-29T02:06:42;52823.09;;;-140.72;100.00
38197;BME280;26543;51.976;4.616;2023-04-29T02:09:08;52855.56;;;-140.72;100.00
38197;BME280;26543;51.976;4.616;2023-04-29T02:11:33;52890.06;;;-140.72;100.00
38197;BME280;26543;51.976;4.616;2023-04-29T02:13:58;52853.53;;;-140.72;100.00
38197;BME280;26543;51.976;4.616;2023-04-29T02:16:24;52886.00;;;-140.72;100.00
38197;BME280;26543;51.976;4.616;2023-04-29T02:18:49;52863.66;;;-140.72;100.00
38197;BME280;26543;51.976;4.616;2023-04-29T02:21:14;52853.53;;;-140.72;100.00
38197;BME280;26543;51.976;4.616;2023-04-29T02:23:40;52888.03;;;-140.72;100.00
38197;BME280;26543;51.976;4.616;2023-04-29T02:26:05;52819.03;;;-140.72;100.00
38197;BME280;26543;51.976;4.616;2023-04-29T02:28:31;52855.56;;;-140.72;100.00
38197;BME280;26543;51.976;4.616;2023-04-29T02:30:58;52843.38;;;-140.72;100.00
38197;BME280;26543;51.976;4.616;2023-04-29T02:33:23;52853.53;;;-140.72;100.00
38197;BME280;26543;51.976;4.616;2023-04-29T02:35:48;52890.06;;;-140.72;100.00
38197;BME280;26543;51.976;4.616;2023-04-29T02:38:15;52847.44;;;-140.72;100.00
38197;BME280;26543;51.976;4.616;2023-04-29T02:40:49;52845.41;;;-140.72;100.00
38197;BME280;26543;51.976;4.616;2023-04-29T02:43:14;52837.28;;;-140.72;100.00
38197;BME280;26543;51.976;4.616;2023-04-29T02:45:39;52837.28;;;-140.72;100.00
38197;BME280;26543;51.976;4.616;2023-04-29T02:48:05;52845.41;;;-140.72;100.00
38197;BME280;26543;51.976;4.616;2023-04-29T02:50:30;52861.66;;;-140.72;100.00
38197;BME280;26543;51.976;4.616;2023-04-29T02:52:56;52871.78;;;-140.72;100.00
38197;BME280;26543;51.976;4.616;2023-04-29T02:55:22;52861.66;;;-140.72;100.00
38197;BME280;26543;51.976;4.616;2023-04-29T02:57:47;52849.47;;;-140.72;100.00
38197;BME280;26543;51.976;4.616;2023-04-29T03:00:12;52877.88;;;-140.72;100.00
38197;BME280;26543;51.976;4.616;2023-04-29T03:02:38;52833.22;;;-140.72;100.00
38197;BME280;26543;51.976;4.616;2023-04-29T03:05:03;52845.41;;;-140.72;100.00
38197;BME280;26543;51.976;4.616;2023-04-29T03:07:29;52873.81;;;-140.72;100.00
38197;BME280;26543;51.976;4.616;2023-04-29T03:09:54;52918.47;;;-140.72;100.00
38197;BME280;26543;51.976;4.616;2023-04-29T03:12:20;52886.00;;;-140.72;100.00
38197;BME280;26543;51.976;4.616;2023-04-29T03:14:45;52873.81;;;-140.72;100.00
38197;BME280;26543;51.976;4.616;2023-04-29T03:17:11;52853.53;;;-140.72;100.00
38197;BME280;26543;51.976;4.616;2023-04-29T03:19:36;52845.41;;;-140.72;100.00
38197;BME280;26543;51.976;4.616;2023-04-29T03:22:01;52892.09;;;-140.72;100.00
38197;BME280;26543;51.976;4.616;2023-04-29T03:24:26;52835.25;;;-140.72;100.00
38197;BME280;26543;51.976;4.616;2023-04-29T03:26:52;52853.53;;;-140.72;100.00
38197;BME280;26543;51.976;4.616;2023-04-29T03:29:17;52843.38;;;-140.72;100.00
38197;BME280;26543;51.976;4.616;2023-04-29T03:31:42;52855.56;;;-140.72;100.00
38197;BME280;26543;51.976;4.616;2023-04-29T03:34:08;52829.19;;;-140.72;100.00
38197;BME280;26543;51.976;4.616;2023-04-29T03:36:34;52829.19;;;-140.72;100.00
38197;BME280;26543;51.976;4.616;2023-04-29T03:38:59;52800.75;;;-140.72;100.00
38197;BME280;26543;51.976;4.616;2023-04-29T03:41:25;52869.75;;;-140.72;100.00
38197;BME280;26543;51.976;4.616;2023-04-29T03:43:50;52857.59;;;-140.72;100.00
38197;BME280;26543;51.976;4.616;2023-04-29T03:46:15;52861.66;;;-140.72;100.00
38197;BME280;26543;51.976;4.616;2023-04-29T03:48:41;52829.19;;;-140.72;100.00
38197;BME280;26543;51.976;4.616;2023-04-29T03:51:06;52902.22;;;-140.72;100.00
38197;BME280;26543;51.976;4.616;2023-04-29T03:53:33;52865.69;;;-140.72;100.00
38197;BME280;26543;51.976;4.616;2023-04-29T03:55:58;52843.38;;;-140.72;100.00
38197;BME280;26543;51.976;4.616;2023-04-29T03:58:23;52817.00;;;-140.72;100.00
38197;BME280;26543;51.976;4.616;2023-04-29T04:00:48;52869.75;;;-140.72;100.00
38197;BME280;26543;51.976;4.616;2023-04-29T04:03:14;52861.66;;;-140.72;100.00
38197;BME280;26543;51.976;4.616;2023-04-29T04:05:39;52849.47;;;-140.72;100.00
38197;BME280;26543;51.976;4.616;2023-04-29T04:08:04;52894.13;;;-140.72;100.00
38197;BME280;26543;51.976;4.616;2023-04-29T04:10:30;52851.50;;;-140.72;100.00
38197;BME280;26543;51.976;4.616;2023-04-29T04:12:55;52871.78;;;-140.72;100.00
38197;BME280;26543;51.976;4.616;2023-04-29T04:15:20;52888.03;;;-140.72;100.00
38197;BME280;26543;51.976;4.616;2023-04-29T04:17:46;52873.81;;;-140.72;100.00
38197;BME280;26543;51.976;4.616;2023-04-29T04:20:12;52896.16;;;-140.72;100.00
38197;BME280;26543;51.976;4.616;2023-04-29T04:22:37;52873.81;;;-140.72;100.00
38197;BME280;26543;51.976;4.616;2023-04-29T04:25:02;52881.94;;;-140.72;100.00
38197;BME280;26543;51.976;4.616;2023-04-29T04:27:28;52861.66;;;-140.72;100.00
38197;BME280;26543;51.976;4.616;2023-04-29T04:29:54;52812.94;;;-140.72;100.00
38197;BME280;26543;51.976;4.616;2023-04-29T04:32:20;52849.47;;;-140.72;100.00
38197;BME280;26543;51.976;4.616;2023-04-29T04:34:45;52851.50;;;-140.72;100.00
38197;BME280;26543;51.976;4.616;2023-04-29T04:37:11;52886.00;;;-140.72;100.00
38197;BME280;26543;51.976;4.616;2023-04-29T04:39:37;52833.22;;;-140.72;100.00
38197;BME280;26543;51.976;4.616;2023-04-29T04:42:02;52863.66;;;-140.72;100.00
38197;BME280;26543;51.976;4.616;2023-04-29T04:44:28;52869.75;;;-140.72;100.00
38197;BME280;26543;51.976;4.616;2023-04-29T04:46:54;52855.56;;;-140.72;100.00
38197;BME280;26543;51.976;4.616;2023-04-29T04:49:19;52845.41;;;-140.72;100.00
38197;BME280;26543;51.976;4.616;2023-04-29T04:51:44;52888.03;;;-140.72;100.00
38197;BME280;26543;51.976;4.616;2023-04-29T04:54:10;52833.22;;;-140.72;100.00
38197;BME280;26543;51.976;4.616;2023-04-29T04:56:35;52873.81;;;-140.72;100.00
38197;BME280;26543;51.976;4.616;2023-04-29T04:59:01;52879.91;;;-140.72;100.00
38197;BME280;26543;51.976;4.616;2023-04-29T05:01:27;52853.53;;;-140.72;100.00
38197;BME280;26543;51.976;4.616;2023-04-29T05:03:52;52865.69;;;-140.72;100.00
38197;BME280;26543;51.976;4.616;2023-04-29T05:06:17;52853.53;;;-140.72;100.00
38197;BME280;26543;51.976;4.616;2023-04-29T05:08:43;52835.25;;;-140.72;100.00
38197;BME280;26543;51.976;4.616;2023-04-29T05:11:17;52863.66;;;-140.72;100.00
38197;BME280;26543;51.976;4.616;2023-04-29T05:13:43;52829.19;;;-140.72;100.00
38197;BME280;26543;51.976;4.616;2023-04-29T05:16:08;52871.78;;;-140.72;100.00
38197;BME280;26543;51.976;4.616;2023-04-29T05:18:34;52861.66;;;-140.72;100.00
38197;BME280;26543;51.976;4.616;2023-04-29T05:20:59;52837.28;;;-140.72;100.00
38197;BME280;26543;51.976;4.616;2023-04-29T05:23:24;52890.06;;;-140.72;100.00
38197;BME280;26543;51.976;4.616;2023-04-29T05:25:50;52857.59;;;-140.72;100.00
38197;BME280;26543;51.976;4.616;2023-04-29T05:28:15;52863.66;;;-140.72;100.00
38197;BME280;26543;51.976;4.616;2023-04-29T05:30:40;52835.25;;;-140.72;100.00
38197;BME280;26543;51.976;4.616;2023-04-29T05:33:05;52829.19;;;-140.72;100.00
38197;BME280;26543;51.976;4.616;2023-04-29T05:35:30;52861.66;;;-140.72;100.00
38197;BME280;26543;51.976;4.616;2023-04-29T05:37:56;52829.19;;;-140.72;100.00
38197;BME280;26543;51.976;4.616;2023-04-29T05:40:21;52847.44;;;-140.72;100.00
38197;BME280;26543;51.976;4.616;2023-04-29T05:42:47;52833.22;;;-140.72;100.00
38197;BME280;26543;51.976;4.616;2023-04-29T05:45:12;52853.53;;;-140.72;100.00
38197;BME280;26543;51.976;4.616;2023-04-29T05:47:37;52817.00;;;-140.72;100.00
38197;BME280;26543;51.976;4.616;2023-04-29T05:50:03;52857.59;;;-140.72;100.00
38197;BME280;26543;51.976;4.616;2023-04-29T05:52:28;52810.91;;;-140.72;100.00
38197;BME280;26543;51.976;4.616;2023-04-29T05:54:53;52837.28;;;-140.72;100.00
38197;BME280;26543;51.976;4.616;2023-04-29T05:57:18;52780.47;;;-140.72;100.00
38197;BME280;26543;51.976;4.616;2023-04-29T05:59:44;52819.03;;;-140.72;100.00
38197;BME280;26543;51.976;4.616;2023-04-29T06:02:09;52814.97;;;-140.72;100.00
38197;BME280;26543;51.976;4.616;2023-04-29T06:04:35;52845.41;;;-140.72;100.00
38197;BME280;26543;51.976;4.616;2023-04-29T06:07:01;52825.13;;;-140.72;100.00
38197;BME280;26543;51.976;4.616;2023-04-29T06:09:27;52835.25;;;-140.72;100.00
38197;BME280;26543;51.976;4.616;2023-04-29T06:11:52;52780.47;;;-140.72;100.00
38197;BME280;26543;51.976;4.616;2023-04-29T06:14:17;52833.22;;;-140.72;100.00
38197;BME280;26543;51.976;4.616;2023-04-29T06:16:43;52837.28;;;-140.72;100.00
38197;BME280;26543;51.976;4.616;2023-04-29T06:19:08;52833.22;;;-140.72;100.00
38197;BME280;26543;51.976;4.616;2023-04-29T06:21:33;52829.19;;;-140.72;100.00
38197;BME280;26543;51.976;4.616;2023-04-29T06:23:59;52821.06;;;-140.72;100.00
38197;BME280;26543;51.976;4.616;2023-04-29T06:26:24;52845.41;;;-140.72;100.00
38197;BME280;26543;51.976;4.616;2023-04-29T06:28:49;52841.34;;;-140.72;100.00
38197;BME280;26543;51.976;4.616;2023-04-29T06:31:15;52831.19;;;-140.72;100.00
38197;BME280;26543;51.976;4.616;2023-04-29T06:33:40;52814.97;;;-140.72;100.00
38197;BME280;26543;51.976;4.616;2023-04-29T06:36:06;52804.81;;;-140.72;100.00
38197;BME280;26543;51.976;4.616;2023-04-29T06:38:31;52796.72;;;-140.72;100.00
38197;BME280;26543;51.976;4.616;2023-04-29T06:40:56;52812.94;;;-140.72;100.00
38197;BME280;26543;51.976;4.616;2023-04-29T06:43:31;52790.63;;;-140.72;100.00
38197;BME280;26543;51.976;4.616;2023-04-29T06:45:56;52772.34;;;-140.72;100.00
38197;BME280;26543;51.976;4.616;2023-04-29T06:48:21;52758.16;;;-140.72;100.00
38197;BME280;26543;51.976;4.616;2023-04-29T06:50:54;52845.41;;;-140.72;100.00
38197;BME280;26543;51.976;4.616;2023-04-29T06:53:19;52812.94;;;-140.72;100.00
38197;BME280;26543;51.976;4.616;2023-04-29T06:55:45;52762.22;;;-140.72;100.00
38197;BME280;26543;51.976;4.616;2023-04-29T06:58:13;52821.06;;;-140.72;100.00
38197;BME280;26543;51.976;4.616;2023-04-29T07:00:39;52827.16;;;-140.72;100.00
38197;BME280;26543;51.976;4.616;2023-04-29T07:03:04;52792.66;;;-140.72;100.00
38197;BME280;26543;51.976;4.616;2023-04-29T07:05:30;52776.41;;;-140.72;100.00
38197;BME280;26543;51.976;4.616;2023-04-29T07:07:55;52810.91;;;-140.72;100.00
38197;BME280;26543;51.976;4.616;2023-04-29T07:10:21;52794.69;;;-140.72;100.00
38197;BME280;26543;51.976;4.616;2023-04-29T07:12:46;52782.50;;;-140.72;100.00
38197;BME280;26543;51.976;4.616;2023-04-29T07:15:12;52812.94;;;-140.72;100.00
38197;BME280;26543;51.976;4.616;2023-04-29T07:17:37;52812.94;;;-140.72;100.00
38197;BME280;26543;51.976;4.616;2023-04-29T07:22:53;52782.50;;;-140.72;100.00
38197;BME280;26543;51.976;4.616;2023-04-29T07:25:19;52790.63;;;-140.72;100.00
38197;BME280;26543;51.976;4.616;2023-04-29T07:27:54;52814.97;;;-140.72;100.00
38197;BME280;26543;51.976;4.616;2023-04-29T07:30:20;52819.03;;;-140.72;100.00
38197;BME280;26543;51.976;4.616;2023-04-29T07:32:45;52814.97;;;-140.72;100.00
38197;BME280;26543;51.976;4.616;2023-04-29T07:35:25;52802.78;;;-140.72;100.00
38197;BME280;26543;51.976;4.616;2023-04-29T07:37:51;52817.00;;;-140.72;100.00
38197;BME280;26543;51.976;4.616;2023-04-29T07:40:16;52780.47;;;-140.72;100.00
38197;BME280;26543;51.976;4.616;2023-04-29T07:42:41;52778.44;;;-140.72;100.00
38197;BME280;26543;51.976;4.616;2023-04-29T07:45:07;52825.13;;;-140.72;100.00
38197;BME280;26543;51.976;4.616;2023-04-29T07:47:32;52810.91;;;-140.72;100.00
38197;BME280;26543;51.976;4.616;2023-04-29T07:49:57;52841.34;;;-140.72;100.00
38197;BME280;26543;51.976;4.616;2023-04-29T07:52:23;52770.31;;;-140.72;100.00
38197;BME280;26543;51.976;4.616;2023-04-29T07:54:48;52800.75;;;-140.72;100.00
38197;BME280;26543;51.976;4.616;2023-04-29T07:57:13;52784.53;;;-140.72;100.00
38197;BME280;26543;51.976;4.616;2023-04-29T07:59:38;52780.47;;;-140.72;100.00
38197;BME280;26543;51.976;4.616;2023-04-29T08:02:04;52806.84;;;-140.72;100.00
38197;BME280;26543;51.976;4.616;2023-04-29T08:04:29;52752.06;;;-140.72;100.00
38197;BME280;26543;51.976;4.616;2023-04-29T08:06:54;52756.13;;;-140.72;100.00
38197;BME280;26543;51.976;4.616;2023-04-29T08:09:19;52804.81;;;-140.72;100.00
38197;BME280;26543;51.976;4.616;2023-04-29T08:11:45;52772.34;;;-140.72;100.00
38197;BME280;26543;51.976;4.616;2023-04-29T08:14:10;52825.13;;;-140.72;100.00
38197;BME280;26543;51.976;4.616;2023-04-29T08:16:35;52794.69;;;-140.72;100.00
38197;BME280;26543;51.976;4.616;2023-04-29T08:19:01;52796.72;;;-140.72;100.00
38197;BME280;26543;51.976;4.616;2023-04-29T08:21:26;52792.66;;;-140.72;100.00
38197;BME280;26543;51.976;4.616;2023-04-29T08:23:51;52814.97;;;-140.72;100.00
38197;BME280;26543;51.976;4.616;2023-04-29T08:26:17;52788.59;;;-140.72;100.00
38197;BME280;26543;51.976;4.616;2023-04-29T08:28:42;52819.03;;;-140.72;100.00
38197;BME280;26543;51.976;4.616;2023-04-29T08:33:52;52733.78;;;-140.72;100.00
38197;BME280;26543;51.976;4.616;2023-04-29T08:36:17;52729.75;;;-140.72;100.00
38197;BME280;26543;51.976;4.616;2023-04-29T08:38:42;52723.66;;;-140.72;100.00
38197;BME280;26543;51.976;4.616;2023-04-29T08:41:08;52794.69;;;-140.72;100.00
38197;BME280;26543;51.976;4.616;2023-04-29T08:43:34;52723.66;;;-140.72;100.00
38197;BME280;26543;51.976;4.616;2023-04-29T08:46:01;52741.91;;;-140.72;100.00
38197;BME280;26543;51.976;4.616;2023-04-29T08:48:26;52715.53;;;-140.72;100.00
38197;BME280;26543;51.976;4.616;2023-04-29T08:50:54;52725.69;;;-140.72;66.38
38197;BME280;26543;51.976;4.616;2023-04-29T08:53:19;52662.78;;;-140.72;39.90
38197;BME280;26543;51.976;4.616;2023-04-29T08:58:50;52721.63;;;-140.72;65.21
38197;BME280;26543;51.976;4.616;2023-04-29T09:01:18;52679.00;;;-140.72;64.38
38197;BME280;26543;51.976;4.616;2023-04-29T09:03:53;52687.13;;;-140.72;22.09
38197;BME280;26543;51.976;4.616;2023-04-29T09:06:19;52672.91;;;-140.72;10.75
38197;BME280;26543;51.976;4.616;2023-04-29T09:08:46;52668.84;;;-140.72;23.66
38197;BME280;26543;51.976;4.616;2023-04-29T09:11:11;52662.78;;;-140.72;15.40
38197;BME280;26543;51.976;4.616;2023-04-29T09:13:37;52658.72;;;-140.72;0.00
38197;BME280;26543;51.976;4.616;2023-04-29T09:16:03;52648.56;;;-140.72;0.00
38197;BME280;26543;51.976;4.616;2023-04-29T09:18:43;52674.94;;;-140.72;0.00
38197;BME280;26543;51.976;4.616;2023-04-29T09:21:15;52605.94;;;-140.72;0.00
38197;BME280;26543;51.976;4.616;2023-04-29T09:23:41;52672.91;;;-140.72;0.00
38197;BME280;26543;51.976;4.616;2023-04-29T09:26:07;52709.44;;;-140.72;0.00
38197;BME280;26543;51.976;4.616;2023-04-29T09:28:32;52662.78;;;-140.72;0.00
38197;BME280;26543;51.976;4.616;2023-04-29T09:30:58;52583.63;;;-140.72;0.00
38197;BME280;26543;51.976;4.616;2023-04-29T09:33:23;52658.72;;;-140.72;0.00
38197;BME280;26543;51.976;4.616;2023-04-29T09:35:52;52652.63;;;-140.72;0.00
38197;BME280;26543;51.976;4.616;2023-04-29T09:38:17;52630.31;;;-140.72;0.00
38197;BME280;26543;51.976;4.616;2023-04-29T09:40:43;52644.50;;;-140.72;0.00
38197;BME280;26543;51.976;4.616;2023-04-29T09:43:15;52500.44;;;-140.72;0.00
38197;BME280;26543;51.976;4.616;2023-04-29T09:45:43;52585.66;;;-140.72;0.00
38197;BME280;26543;51.976;4.616;2023-04-29T09:48:09;52634.38;;;-140.72;0.00
38197;BME280;26543;51.976;4.616;2023-04-29T09:50:34;52626.25;;;-140.72;0.00
38197;BME280;26543;51.976;4.616;2023-04-29T09:53:03;52666.84;;;-140.72;0.00
38197;BME280;26543;51.976;4.616;2023-04-29T09:55:28;52622.19;;;-140.72;0.00
38197;BME280;26543;51.976;4.616;2023-04-29T09:57:54;52474.06;;;-140.72;0.00
38197;BME280;26543;51.976;4.616;2023-04-29T10:00:19;52573.50;;;-140.72;0.00
38197;BME280;26543;51.976;4.616;2023-04-29T10:02:45;52561.31;;;-140.72;0.00
38197;BME280;26543;51.976;4.616;2023-04-29T10:08:23;52607.97;;;-140.72;0.00
38197;BME280;26543;51.976;4.616;2023-04-29T10:10:49;52571.47;;;-140.72;0.00
38197;BME280;26543;51.976;4.616;2023-04-29T10:13:21;52603.94;;;-140.72;0.00
38197;BME280;26543;51.976;4.616;2023-04-29T10:15:48;52612.03;;;-140.72;0.00
38197;BME280;26543;51.976;4.616;2023-04-29T10:18:20;52636.38;;;-140.72;0.00
38197;BME280;26543;51.976;4.616;2023-04-29T10:20:46;52638.41;;;-140.72;0.00
38197;BME280;26543;51.976;4.616;2023-04-29T10:23:14;52502.47;;;-140.72;0.00
38197;BME280;26543;51.976;4.616;2023-04-29T10:25:40;52549.13;;;-140.72;0.00
38197;BME280;26543;51.976;4.616;2023-04-29T10:28:08;52536.97;;;-140.72;0.00
38197;BME280;26543;51.976;4.616;2023-04-29T10:30:38;52587.69;;;-140.72;0.00
38197;BME280;26543;51.976;4.616;2023-04-29T10:33:04;52571.47;;;-140.72;0.00
38197;BME280;26543;51.976;4.616;2023-04-29T10:35:30;52494.34;;;-140.72;0.00
38197;BME280;26543;51.976;4.616;2023-04-29T10:37:57;52553.19;;;-140.72;0.00
38197;BME280;26543;51.976;4.616;2023-04-29T10:43:05;52612.03;;;-140.72;0.00
38197;BME280;26543;51.976;4.616;2023-04-29T10:45:31;52415.22;;;-140.72;0.00
38197;BME280;26543;51.976;4.616;2023-04-29T10:50:30;52398.97;;;-140.72;0.00
38197;BME280;26543;51.976;4.616;2023-04-29T10:52:55;52455.78;;;-140.72;0.00
38197;BME280;26543;51.976;4.616;2023-04-29T10:55:22;52334.03;;;-140.72;0.00
38197;BME280;26543;51.976;4.616;2023-04-29T10:57:47;52342.16;;;-140.72;0.00
38197;BME280;26543;51.976;4.616;2023-04-29T11:00:28;52220.41;;;-140.72;0.00
38197;BME280;26543;51.976;4.616;2023-04-29T11:02:54;52183.91;;;-140.72;0.00
38197;BME280;26543;51.976;4.616;2023-04-29T11:05:29;52167.66;;;-140.72;0.00
38197;BME280;26543;51.976;4.616;2023-04-29T11:08:14;52147.38;;;-140.72;0.00
38197;BME280;26543;51.976;4.616;2023-04-29T11:10:47;52098.69;;;-140.72;0.00
38197;BME280;26543;51.976;4.616;2023-04-29T11:13:28;52096.66;;;-140.72;0.00
38197;BME280;26543;51.976;4.616;2023-04-29T11:16:06;52023.59;;;-140.72;0.00
38197;BME280;26543;51.976;4.616;2023-04-29T11:18:32;52123.03;;;-140.72;0.00
38197;BME280;26543;51.976;4.616;2023-04-29T11:23:29;52238.69;;;-140.72;0.00
38197;BME280;26543;51.976;4.616;2023-04-29T11:25:55;52323.91;;;-140.72;0.00
38197;BME280;26543;51.976;4.616;2023-04-29T11:28:23;52295.50;;;-140.72;0.00
38197;BME280;26543;51.976;4.616;2023-04-29T11:30:51;52218.38;;;-140.72;0.00
38197;BME280;26543;51.976;4.616;2023-04-29T11:33:18;52204.19;;;-140.72;0.00
38197;BME280;26543;51.976;4.616;2023-04-29T11:35:43;52200.13;;;-140.72;0.00
38197;BME280;26543;51.976;4.616;2023-04-29T11:38:09;52123.03;;;-140.72;0.00
38197;BME280;26543;51.976;4.616;2023-04-29T11:40:34;52114.91;;;-140.72;0.00
38197;BME280;26543;51.976;4.616;2023-04-29T11:42:59;52102.75;;;-140.72;0.00
38197;BME280;26543;51.976;4.616;2023-04-29T11:45:25;52133.16;;;-140.72;0.00
38197;BME280;26543;51.976;4.616;2023-04-29T11:47:50;52127.09;;;-140.72;0.00
38197;BME280;26543;51.976;4.616;2023-04-29T11:50:16;52045.94;;;-140.72;0.00
38197;BME280;26543;51.976;4.616;2023-04-29T11:52:44;52049.97;;;-140.72;0.00
38197;BME280;26543;51.976;4.616;2023-04-29T11:55:10;52246.78;;;-140.72;0.00
38197;BME280;26543;51.976;4.616;2023-04-29T11:57:36;52258.97;;;-140.72;0.00
38197;BME280;26543;51.976;4.616;2023-04-29T12:00:01;52271.16;;;-140.72;0.00
38197;BME280;26543;51.976;4.616;2023-04-29T12:02:31;52348.25;;;-140.72;0.00
38197;BME280;26543;51.976;4.616;2023-04-29T12:04:57;52403.03;;;-140.72;0.00
38197;BME280;26543;51.976;4.616;2023-04-29T12:07:24;52403.03;;;-140.72;0.00
38197;BME280;26543;51.976;4.616;2023-04-29T12:09:50;52380.72;;;-140.72;0.00
38197;BME280;26543;51.976;4.616;2023-04-29T12:12:15;52364.47;;;-140.72;0.00
38197;BME280;26543;51.976;4.616;2023-04-29T12:14:41;52374.63;;;-140.72;0.00
38197;BME280;26543;51.976;4.616;2023-04-29T12:17:06;52398.97;;;-140.72;0.00
38197;BME280;26543;51.976;4.616;2023-04-29T12:19:33;52403.03;;;-140.72;0.00
38197;BME280;26543;51.976;4.616;2023-04-29T12:21:58;52459.84;;;-140.72;0.00
38197;BME280;26543;51.976;4.616;2023-04-29T12:24:24;52411.16;;;-140.72;0.00
38197;BME280;26543;51.976;4.616;2023-04-29T12:27:08;52370.56;;;-140.72;0.00
38197;BME280;26543;51.976;4.616;2023-04-29T12:29:37;52271.16;;;-140.72;0.00
38197;BME280;26543;51.976;4.616;2023-04-29T12:34:46;52104.75;;;-140.72;0.00
38197;BME280;26543;51.976;4.616;2023-04-29T12:37:12;52200.13;;;-140.72;0.00
38197;BME280;26543;51.976;4.616;2023-04-29T12:39:37;52338.09;;;-140.72;0.00
38197;BME280;26543;51.976;4.616;2023-04-29T12:42:02;52366.50;;;-140.72;0.00
38197;BME280;26543;51.976;4.616;2023-04-29T12:44:37;52407.09;;;-140.72;0.00
38197;BME280;26543;51.976;4.616;2023-04-29T12:47:08;52354.34;;;-140.72;0.00
38197;BME280;26543;51.976;4.616;2023-04-29T12:49:34;52463.91;;;-140.72;0.00
38197;BME280;26543;51.976;4.616;2023-04-29T12:51:59;52423.31;;;-140.72;0.00
38197;BME280;26543;51.976;4.616;2023-04-29T12:54:25;52291.44;;;-140.72;0.00
38197;BME280;26543;51.976;4.616;2023-04-29T12:56:50;52222.44;;;-140.72;0.00
38197;BME280;26543;51.976;4.616;2023-04-29T12:59:15;52155.50;;;-140.72;0.00
38197;BME280;26543;51.976;4.616;2023-04-29T13:01:41;52285.34;;;-140.72;0.00